Time;durP1;ratioP1;P1;durP2;ratioP2;P2;SDS_P1;SDS_P2;PMS_P1;PMS_P2;Temp;Humidity;BMP_temperature;BMP_pressure;BME280_temperature;BME280_humidity;BME280_pressure;Samples;Min_cycle;Max_cycle;Signal;HPM_P1;HPM_P2
2023/05/22 00:00:43;;;;;;;;;;;;;;;;;;5132075;28;1516;-54
2023/05/22 00:03:10;;;;;;;;;;;;;;;;;;5131879;28;2128;-51
2023/05/22 00:05:37;;;;;;;;;;;;;;;;;;5132257;27;1872;-59
2023/05/22 00:08:09;;;;;;;;;;;;;;;;;;5131939;28;1920;-59
2023/05/22 00:10:37;;;;;;;;;;;;;;;;;;5132038;28;1729;-60
2023/05/22 00:13:05;;;;;;;;;;;;;;;;;;5131825;28;1721;-60
2023/05/22 00:15:32;;;;;;;;;;;;;;;;;;5132065;27;1889;-56
2023/05/22 00:18:00;;;;;;;;;;;;;;;;;;5131915;28;2129;-59
2023/05/22 00:20:27;;;;;;;;;;;;;;;;;;5113740;28;1819;-55
2023/05/22 00:22:55;;;;;;;;;;;;;;;;;;5131862;27;1986;-58
2023/05/22 00:25:23;;;;;;;;;;;;;;;;;;5131695;28;1498;-59
2023/05/22 00:27:50;;;;;;;;;;;;;;;;;;5131830;28;1860;-59
2023/05/22 00:30:18;;;;;;;;;;;;;;;;;;5131626;28;1834;-59
2023/05/22 00:32:47;;;;;;;;;;;;;;;;;;5113298;28;1871;-60
2023/05/22 00:35:14;;;;;;;;;;;;;;;;;;5131463;28;1528;-60
2023/05/22 00:37:43;;;;;;;;;;;;;;;;;;5131800;27;2172;-57
2023/05/22 00:40:11;;;;;;;;;;;;;;;;;;5131551;28;1834;-58
2023/05/22 00:42:39;;;;;;;;;;;;;;;;;;5131992;27;1904;-47
2023/05/22 00:45:06;;;;;;;;;;;;;;;;;;5131827;28;1754;-60
2023/05/22 00:47:34;;;;;;;;;;;;;;;;;;5131528;28;1679;-55
2023/05/22 00:50:02;;;;;;;;;;;;;;;;;;5131324;28;1969;-58
2023/05/22 00:52:29;;;;;;;;;;;;;;;;;;5133154;27;1671;-58
2023/05/22 00:54:57;;;;;;;;;;;;;;;;;;5135109;27;1438;-60
2023/05/22 00:57:25;;;;;;;;;;;;;;;;;;5135040;27;1879;-60
2023/05/22 00:59:52;;;;;;;;;;;;;;;;;;5135203;27;2042;-59
2023/05/22 01:02:19;;;;;;;;;;;;;;;;;;5135047;27;1527;-58
2023/05/22 01:04:47;;;;;;;;;;;;;;;;;;5134962;27;1971;-56
2023/05/22 01:07:16;;;;;;;;;;;;;;;;;;5134777;27;1364;-57
2023/05/22 01:09:44;;;;;;;;;;;;;;;;;;5116756;27;2085;-58
2023/05/22 01:12:18;;;;;;;;;;;;;;;;;;5134943;27;1917;-59
2023/05/22 01:14:59;;;;;;;;;;;;;;;;;;5134781;27;1554;-57
2023/05/22 01:17:29;;;;;;;;;;;;;;;;;;5134614;27;1273;-54
2023/05/22 01:20:13;;;;;;;;;;;;;;;;;;5116583;27;1604;-59
2023/05/22 01:23:05;;;;;;;;;;;;;;;;;;5134809;27;1715;-59
2023/05/22 01:25:51;;;;;;;;;;;;;;;;;;5116162;27;1410;-54
2023/05/22 01:28:31;;;;;;;;;;;;;;;;;;5116101;27;2363;-53
2023/05/22 01:31:05;;;;;;;;;;;;;;;;;;5134288;27;1769;-58
2023/05/22 01:33:37;;;;;;;;;;;;;;;;;;5115623;27;1851;-57
2023/05/22 01:36:06;;;;;;;;;;;;;;;;;;5134452;27;1277;-56
2023/05/22 01:38:33;;;;;;;;;;;;;;;;;;5115533;27;1722;-58
2023/05/22 01:41:01;;;;;;;;;;;;;;;;;;5115713;27;1615;-58
2023/05/22 01:43:28;;;;;;;;;;;;;;;;;;5134266;27;1924;-53
2023/05/22 01:45:55;;;;;;;;;;;;;;;;;;5134379;27;1707;-55
2023/05/22 01:48:23;;;;;;;;;;;;;;;;;;5133922;27;1880;-52
2023/05/22 01:50:52;;;;;;;;;;;;;;;;;;5133813;27;1408;-54
2023/05/22 01:53:28;;;;;;;;;;;;;;;;;;5134176;27;1691;-52
2023/05/22 01:56:04;;;;;;;;;;;;;;;;;;5133961;27;1862;-52
2023/05/22 01:58:34;;;;;;;;;;;;;;;;;;5115434;27;1875;-57
2023/05/22 02:01:02;;;;;;;;;;;;;;;;;;5115137;27;1618;-59
2023/05/22 02:03:30;;;;;;;;;;;;;;;;;;5132626;27;1986;-57
2023/05/22 02:05:58;;;;;;;;;;;;;;;;;;5134006;27;1680;-55
2023/05/22 02:08:26;;;;;;;;;;;;;;;;;;5115952;27;1787;-59
2023/05/22 02:10:54;;;;;;;;;;;;;;;;;;5115411;27;1689;-56
2023/05/22 02:13:22;;;;;;;;;;;;;;;;;;5133579;27;2058;-50
2023/05/22 02:15:52;;;;;;;;;;;;;;;;;;5133369;27;1349;-59
2023/05/22 02:18:25;;;;;;;;;;;;;;;;;;5133768;27;1475;-55
2023/05/22 02:20:53;;;;;;;;;;;;;;;;;;5115140;27;1756;-56
2023/05/22 02:23:20;;;;;;;;;;;;;;;;;;5133233;27;1911;-55
2023/05/22 02:25:47;;;;;;;;;;;;;;;;;;5133710;27;2115;-60
2023/05/22 02:28:15;;;;;;;;;;;;;;;;;;5114968;27;2058;-58
2023/05/22 02:30:44;;;;;;;;;;;;;;;;;;5114921;27;1575;-53
2023/05/22 02:33:12;;;;;;;;;;;;;;;;;;5133406;27;2230;-59
2023/05/22 02:35:39;;;;;;;;;;;;;;;;;;5114660;27;1626;-53
2023/05/22 02:38:06;;;;;;;;;;;;;;;;;;5114123;27;1607;-60
2023/05/22 02:40:33;;;;;;;;;;;;;;;;;;5114546;27;1950;-54
2023/05/22 02:43:02;;;;;;;;;;;;;;;;;;5114883;27;2142;-53
2023/05/22 02:45:29;;;;;;;;;;;;;;;;;;5114722;27;1766;-59
2023/05/22 02:47:58;;;;;;;;;;;;;;;;;;5114465;27;1670;-60
2023/05/22 02:50:26;;;;;;;;;;;;;;;;;;5114069;27;1579;-57
2023/05/22 02:52:53;;;;;;;;;;;;;;;;;;5132670;27;1571;-60
2023/05/22 02:55:21;;;;;;;;;;;;;;;;;;5132408;27;1581;-51
2023/05/22 02:57:48;;;;;;;;;;;;;;;;;;5132962;27;1982;-60
2023/05/22 03:00:16;;;;;;;;;;;;;;;;;;5132904;27;1954;-62
2023/05/22 03:02:43;;;;;;;;;;;;;;;;;;5114311;27;1712;-61
2023/05/22 03:05:16;;;;;;;;;;;;;;;;;;5114164;27;1914;-58
2023/05/22 03:07:44;;;;;;;;;;;;;;;;;;5132612;27;1568;-56
2023/05/22 03:10:14;;;;;;;;;;;;;;;;;;5132581;27;1652;-60
2023/05/22 03:12:41;;;;;;;;;;;;;;;;;;5132314;27;1994;-59
2023/05/22 03:15:10;;;;;;;;;;;;;;;;;;5105820;28;1870;-62
2023/05/22 03:17:39;;;;;;;;;;;;;;;;;;5093567;28;2181;-59
2023/05/22 03:20:07;;;;;;;;;;;;;;;;;;5093471;28;2017;-52
2023/05/22 03:22:34;;;;;;;;;;;;;;;;;;5112274;28;1990;-56
2023/05/22 03:25:02;;;;;;;;;;;;;;;;;;5093533;28;2603;-58
2023/05/22 03:27:29;;;;;;;;;;;;;;;;;;5109914;28;2003;-57
2023/05/22 03:29:57;;;;;;;;;;;;;;;;;;5093489;28;1872;-62
2023/05/22 03:32:24;;;;;;;;;;;;;;;;;;5112053;28;1400;-59
2023/05/22 03:34:52;;;;;;;;;;;;;;;;;;5093659;28;1517;-57
2023/05/22 03:37:19;;;;;;;;;;;;;;;;;;5093681;28;1738;-53
2023/05/22 03:39:47;;;;;;;;;;;;;;;;;;5093319;28;1515;-56
2023/05/22 03:42:25;;;;;;;;;;;;;;;;;;5093353;28;1684;-59
2023/05/22 03:44:52;;;;;;;;;;;;;;;;;;5111724;28;1981;-62
2023/05/22 03:47:19;;;;;;;;;;;;;;;;;;5093385;28;2580;-59
2023/05/22 03:49:47;;;;;;;;;;;;;;;;;;5111296;28;2046;-52
2023/05/22 03:52:14;;;;;;;;;;;;;;;;;;5093172;28;1588;-57
2023/05/22 03:54:42;;;;;;;;;;;;;;;;;;5125880;28;2165;-62
2023/05/22 03:57:09;;;;;;;;;;;;;;;;;;5131841;28;1777;-52
2023/05/22 03:59:37;;;;;;;;;;;;;;;;;;5113761;28;1892;-59
2023/05/22 04:02:04;;;;;;;;;;;;;;;;;;5131767;28;1719;-63
2023/05/22 04:04:32;;;;;;;;;;;;;;;;;;5131831;28;2057;-55
2023/05/22 04:07:01;;;;;;;;;;;;;;;;;;5132346;28;2059;-57
2023/05/22 04:09:30;;;;;;;;;;;;;;;;;;5131966;28;1630;-64
2023/05/22 04:11:57;;;;;;;;;;;;;;;;;;5113220;28;1746;-58
2023/05/22 04:14:25;;;;;;;;;;;;;;;;;;5113385;28;1802;-57
2023/05/22 04:16:52;;;;;;;;;;;;;;;;;;5113279;28;1793;-59
2023/05/22 04:19:19;;;;;;;;;;;;;;;;;;5132004;27;1972;-63
2023/05/22 04:21:49;;;;;;;;;;;;;;;;;;5113276;28;2237;-62
2023/05/22 04:24:17;;;;;;;;;;;;;;;;;;5113258;28;1914;-60
2023/05/22 04:26:44;;;;;;;;;;;;;;;;;;5132550;27;1688;-62
2023/05/22 04:29:13;;;;;;;;;;;;;;;;;;5135548;27;1762;-61
2023/05/22 04:31:40;;;;;;;;;;;;;;;;;;5135899;27;2075;-56
2023/05/22 04:34:14;;;;;;;;;;;;;;;;;;5117125;27;2019;-58
2023/05/22 04:36:43;;;;;;;;;;;;;;;;;;5135545;27;1411;-60
2023/05/22 04:39:12;;;;;;;;;;;;;;;;;;5135581;27;2109;-60
2023/05/22 04:41:40;;;;;;;;;;;;;;;;;;5116864;27;1753;-58
2023/05/22 04:44:07;;;;;;;;;;;;;;;;;;5117054;27;1974;-62
2023/05/22 04:46:35;;;;;;;;;;;;;;;;;;5116891;27;1352;-63
2023/05/22 04:49:02;;;;;;;;;;;;;;;;;;5135273;27;1455;-62
2023/05/22 04:51:31;;;;;;;;;;;;;;;;;;5116871;27;1860;-55
2023/05/22 04:53:59;;;;;;;;;;;;;;;;;;5135430;27;1740;-55
2023/05/22 04:56:30;;;;;;;;;;;;;;;;;;5100102;27;1370;-57
2023/05/22 04:59:04;;;;;;;;;;;;;;;;;;5114401;28;1810;-52
2023/05/22 05:01:33;;;;;;;;;;;;;;;;;;5096065;28;2151;-52
2023/05/22 05:04:01;;;;;;;;;;;;;;;;;;5096267;28;1895;-56
2023/05/22 05:06:29;;;;;;;;;;;;;;;;;;5096047;28;2161;-50
2023/05/22 05:08:56;;;;;;;;;;;;;;;;;;5096110;28;1826;-59
2023/05/22 05:11:24;;;;;;;;;;;;;;;;;;5096204;28;1829;-53
2023/05/22 05:13:52;;;;;;;;;;;;;;;;;;5095971;28;1257;-55
2023/05/22 05:16:19;;;;;;;;;;;;;;;;;;5114368;28;2003;-56
2023/05/22 05:18:46;;;;;;;;;;;;;;;;;;5114127;28;1462;-58
2023/05/22 05:21:14;;;;;;;;;;;;;;;;;;5095596;28;1984;-59
2023/05/22 05:23:41;;;;;;;;;;;;;;;;;;5095725;28;2014;-51
2023/05/22 05:26:08;;;;;;;;;;;;;;;;;;5114073;28;1906;-60
2023/05/22 05:28:36;;;;;;;;;;;;;;;;;;5114000;28;1551;-57
2023/05/22 05:31:06;;;;;;;;;;;;;;;;;;5095689;28;1443;-52
2023/05/22 05:33:57;;;;;;;;;;;;;;;;;;5114119;28;1463;-58
2023/05/22 05:36:47;;;;;;;;;;;;;;;;;;5095370;28;1881;-55
2023/05/22 05:39:15;;;;;;;;;;;;;;;;;;5095034;28;1747;-60
2023/05/22 05:41:43;;;;;;;;;;;;;;;;;;5095216;28;1685;-58
2023/05/22 05:44:10;;;;;;;;;;;;;;;;;;5095434;28;2303;-56
2023/05/22 05:46:37;;;;;;;;;;;;;;;;;;5095390;28;1543;-52
2023/05/22 05:49:09;;;;;;;;;;;;;;;;;;5113539;28;1659;-57
2023/05/22 05:51:39;;;;;;;;;;;;;;;;;;5095211;28;2140;-62
2023/05/22 05:54:09;;;;;;;;;;;;;;;;;;5105051;27;1655;-55
2023/05/22 05:56:37;;;;;;;;;;;;;;;;;;5115613;27;2035;-62
2023/05/22 05:59:05;;;;;;;;;;;;;;;;;;5095065;28;1836;-58
2023/05/22 06:01:37;;;;;;;;;;;;;;;;;;5113410;28;1645;-56
2023/05/22 06:04:11;;;;;;;;;;;;;;;;;;5094969;28;2007;-57
2023/05/22 06:06:41;;;;;;;;;;;;;;;;;;5094943;28;2241;-62
2023/05/22 06:09:09;;;;;;;;;;;;;;;;;;5095207;28;1821;-61
2023/05/22 06:11:56;;;;;;;;;;;;;;;;;;5113259;28;1881;-60
2023/05/22 06:14:24;;;;;;;;;;;;;;;;;;5094828;28;1868;-62
2023/05/22 06:16:51;;;;;;;;;;;;;;;;;;5095143;28;1935;-51
2023/05/22 06:19:19;;;;;;;;;;;;;;;;;;5094860;28;1599;-60
2023/05/22 06:21:46;;;;;;;;;;;;;;;;;;5112834;28;1826;-56
2023/05/22 06:24:16;;;;;;;;;;;;;;;;;;5094608;28;1914;-58
2023/05/22 06:26:43;;;;;;;;;;;;;;;;;;5112800;28;1452;-62
2023/05/22 06:29:11;;;;;;;;;;;;;;;;;;5113018;28;1979;-63
2023/05/22 06:31:38;;;;;;;;;;;;;;;;;;5094188;28;1676;-52
2023/05/22 06:34:07;;;;;;;;;;;;;;;;;;5111336;28;2091;-58
2023/05/22 06:36:34;;;;;;;;;;;;;;;;;;5112624;28;1525;-48
2023/05/22 06:39:02;;;;;;;;;;;;;;;;;;5112698;28;1374;-49
2023/05/22 06:41:52;;;;;;;;;;;;;;;;;;5101689;28;1883;-57
2023/05/22 06:44:19;;;;;;;;;;;;;;;;;;5094235;28;1909;-59
2023/05/22 06:46:53;;;;;;;;;;;;;;;;;;5112381;28;1962;-64
2023/05/22 06:49:23;;;;;;;;;;;;;;;;;;5107044;28;2258;-60
2023/05/22 06:51:53;;;;;;;;;;;;;;;;;;5090687;28;2318;-65
2023/05/22 06:54:21;;;;;;;;;;;;;;;;;;5103404;28;1613;-65
2023/05/22 06:56:55;;;;;;;;;;;;;;;;;;5110957;28;1600;-55
2023/05/22 06:59:25;;;;;;;;;;;;;;;;;;5110888;28;1972;-64
2023/05/22 07:02:06;;;;;;;;;;;;;;;;;;5112025;28;1637;-59
2023/05/22 07:05:05;;;;;;;;;;;;;;;;;;5111583;28;1910;-65
2023/05/22 07:07:45;;;;;;;;;;;;;;;;;;5110755;28;1860;-60
2023/05/22 07:10:12;;;;;;;;;;;;;;;;;;5110981;28;1609;-57
2023/05/22 07:12:39;;;;;;;;;;;;;;;;;;5110833;28;2059;-59
2023/05/22 07:15:10;;;;;;;;;;;;;;;;;;5110707;28;1878;-46
2023/05/22 07:17:44;;;;;;;;;;;;;;;;;;5110676;28;1461;-57
2023/05/22 07:20:14;;;;;;;;;;;;;;;;;;5110410;28;1837;-55
2023/05/22 07:22:47;;;;;;;;;;;;;;;;;;5111974;28;1880;-53
2023/05/22 07:25:14;;;;;;;;;;;;;;;;;;5110000;28;1909;-59
2023/05/22 07:27:42;;;;;;;;;;;;;;;;;;5110715;28;1436;-61
2023/05/22 07:30:11;;;;;;;;;;;;;;;;;;5110491;28;1842;-51
2023/05/22 07:32:41;;;;;;;;;;;;;;;;;;5110346;28;1847;-61
2023/05/22 07:35:09;;;;;;;;;;;;;;;;;;5110441;28;1529;-57
2023/05/22 07:37:38;;;;;;;;;;;;;;;;;;5110667;28;1443;-63
2023/05/22 07:40:06;;;;;;;;;;;;;;;;;;5111071;28;1942;-59
2023/05/22 07:42:34;;;;;;;;;;;;;;;;;;5110786;28;1872;-53
2023/05/22 07:45:03;;;;;;;;;;;;;;;;;;5110252;28;2009;-52
2023/05/22 07:47:30;;;;;;;;;;;;;;;;;;5111690;28;1722;-63
2023/05/22 07:49:58;;;;;;;;;;;;;;;;;;5120954;28;1818;-55
2023/05/22 07:52:25;;;;;;;;;;;;;;;;;;5113581;28;1697;-59
2023/05/22 07:54:53;;;;;;;;;;;;;;;;;;5110105;28;1886;-57
2023/05/22 07:57:22;;;;;;;;;;;;;;;;;;5092937;28;1755;-55
2023/05/22 07:59:52;;;;;;;;;;;;;;;;;;5093105;28;2043;-56
2023/05/22 08:02:21;;;;;;;;;;;;;;;;;;5113311;28;2145;-56
2023/05/22 08:04:49;;;;;;;;;;;;;;;;;;5115737;28;1975;-55
2023/05/22 08:07:16;;;;;;;;;;;;;;;;;;5115652;28;1968;-59
2023/05/22 08:09:45;;;;;;;;;;;;;;;;;;5115784;28;2117;-56
2023/05/22 08:12:12;;;;;;;;;;;;;;;;;;5115316;28;1396;-61
2023/05/22 08:14:40;;;;;;;;;;;;;;;;;;5115663;28;1997;-60
2023/05/22 08:17:07;;;;;;;;;;;;;;;;;;5097307;28;2220;-57
2023/05/22 08:19:34;;;;;;;;;;;;;;;;;;5115110;28;2089;-58
2023/05/22 08:22:02;;;;;;;;;;;;;;;;;;5115941;28;1721;-61
2023/05/22 08:24:30;;;;;;;;;;;;;;;;;;5115283;28;1988;-57
2023/05/22 08:26:57;;;;;;;;;;;;;;;;;;5114944;28;2263;-60
2023/05/22 08:29:24;;;;;;;;;;;;;;;;;;5115235;28;1824;-61
2023/05/22 08:31:52;;;;;;;;;;;;;;;;;;5115162;28;2212;-62
2023/05/22 08:34:19;;;;;;;;;;;;;;;;;;5114981;28;1868;-54
2023/05/22 08:36:48;;;;;;;;;;;;;;;;;;5115143;28;2003;-59
2023/05/22 08:39:18;;;;;;;;;;;;;;;;;;5114824;28;2067;-53
2023/05/22 08:41:46;;;;;;;;;;;;;;;;;;5115183;28;2075;-61
2023/05/22 08:44:13;;;;;;;;;;;;;;;;;;5114786;28;1581;-57
2023/05/22 08:46:42;;;;;;;;;;;;;;;;;;5115273;28;1959;-62
2023/05/22 08:49:10;;;;;;;;;;;;;;;;;;5114903;28;1725;-54
2023/05/22 08:51:38;;;;;;;;;;;;;;;;;;5114800;28;1564;-53
2023/05/22 08:54:08;;;;;;;;;;;;;;;;;;5126623;27;2169;-62
2023/05/22 08:56:36;;;;;;;;;;;;;;;;;;5135206;27;2222;-60
2023/05/22 08:59:09;;;;;;;;;;;;;;;;;;5115035;28;1813;-55
2023/05/22 09:01:36;;;;;;;;;;;;;;;;;;5114609;28;2112;-61
2023/05/22 09:04:04;;;;;;;;;;;;;;;;;;5114571;28;1781;-54
2023/05/22 09:06:31;;;;;;;;;;;;;;;;;;5114490;28;2075;-51
2023/05/22 09:08:58;;;;;;;;;;;;;;;;;;5114804;28;1534;-51
2023/05/22 09:11:26;;;;;;;;;;;;;;;;;;5114303;28;1810;-52
2023/05/22 09:14:05;;;;;;;;;;;;;;;;;;5133084;27;1936;-60
2023/05/22 09:16:32;;;;;;;;;;;;;;;;;;5134710;27;2111;-63
2023/05/22 09:19:03;;;;;;;;;;;;;;;;;;5134026;27;1994;-58
2023/05/22 09:21:30;;;;;;;;;;;;;;;;;;5134519;27;1834;-61
2023/05/22 09:24:00;;;;;;;;;;;;;;;;;;5134704;27;1478;-56
2023/05/22 09:26:28;;;;;;;;;;;;;;;;;;5116353;27;1930;-53
2023/05/22 09:28:57;;;;;;;;;;;;;;;;;;5134678;27;2214;-53
2023/05/22 09:31:26;;;;;;;;;;;;;;;;;;5134362;27;2025;-58
2023/05/22 09:33:53;;;;;;;;;;;;;;;;;;5134464;27;2121;-56
2023/05/22 09:36:21;;;;;;;;;;;;;;;;;;5134477;27;2031;-55
2023/05/22 09:38:48;;;;;;;;;;;;;;;;;;5134513;27;1727;-54
2023/05/22 09:41:22;;;;;;;;;;;;;;;;;;5134374;27;1975;-51
2023/05/22 09:43:50;;;;;;;;;;;;;;;;;;5133605;27;1633;-53
2023/05/22 09:46:17;;;;;;;;;;;;;;;;;;5134182;27;1999;-59
2023/05/22 09:48:49;;;;;;;;;;;;;;;;;;5134523;27;1726;-54
2023/05/22 09:51:20;;;;;;;;;;;;;;;;;;5134350;27;1657;-61
2023/05/22 09:53:48;;;;;;;;;;;;;;;;;;5134040;27;1490;-63
2023/05/22 09:56:17;;;;;;;;;;;;;;;;;;5134136;27;2249;-59
2023/05/22 09:58:53;;;;;;;;;;;;;;;;;;5134085;27;2191;-54
2023/05/22 10:01:21;;;;;;;;;;;;;;;;;;5134222;27;2101;-62
2023/05/22 10:03:50;;;;;;;;;;;;;;;;;;5133993;27;1792;-57
2023/05/22 10:06:18;;;;;;;;;;;;;;;;;;5134032;27;1997;-49
2023/05/22 10:08:49;;;;;;;;;;;;;;;;;;5134084;27;1655;-52
2023/05/22 10:11:16;;;;;;;;;;;;;;;;;;5134144;27;1698;-64
2023/05/22 10:13:46;;;;;;;;;;;;;;;;;;5133667;27;1659;-54
2023/05/22 10:16:15;;;;;;;;;;;;;;;;;;5133746;27;1618;-58
2023/05/22 10:18:45;;;;;;;;;;;;;;;;;;5133244;27;1394;-56
2023/05/22 10:21:14;;;;;;;;;;;;;;;;;;5133664;27;1939;-51
2023/05/22 10:23:42;;;;;;;;;;;;;;;;;;5133359;27;2324;-52
2023/05/22 10:26:10;;;;;;;;;;;;;;;;;;5132882;27;1978;-56
2023/05/22 10:28:39;;;;;;;;;;;;;;;;;;5133504;27;1849;-62
2023/05/22 10:31:36;;;;;;;;;;;;;;;;;;5133822;27;1866;-61
2023/05/22 10:34:20;;;;;;;;;;;;;;;;;;5119513;27;2173;-48
2023/05/22 10:36:47;;;;;;;;;;;;;;;;;;5133431;27;1991;-60
2023/05/22 10:39:17;;;;;;;;;;;;;;;;;;5133495;27;1376;-54
2023/05/22 10:41:45;;;;;;;;;;;;;;;;;;5133430;27;1418;-57
2023/05/22 10:44:12;;;;;;;;;;;;;;;;;;5114613;27;2115;-59
2023/05/22 10:46:46;;;;;;;;;;;;;;;;;;5133577;27;2276;-60
2023/05/22 10:49:21;;;;;;;;;;;;;;;;;;5132876;27;1680;-51
2023/05/22 10:51:54;;;;;;;;;;;;;;;;;;5133283;27;1607;-54
2023/05/22 10:54:37;;;;;;;;;;;;;;;;;;5133074;27;2028;-54
2023/05/22 10:57:15;;;;;;;;;;;;;;;;;;5129154;27;1795;-60
2023/05/22 10:59:43;;;;;;;;;;;;;;;;;;5094091;28;2046;-52
2023/05/22 11:02:20;;;;;;;;;;;;;;;;;;5112266;28;1816;-54
2023/05/22 11:04:48;;;;;;;;;;;;;;;;;;5112430;28;1793;-61
2023/05/22 11:07:15;;;;;;;;;;;;;;;;;;5111842;28;2144;-57
2023/05/22 11:09:46;;;;;;;;;;;;;;;;;;5112360;28;1880;-48
2023/05/22 11:12:24;;;;;;;;;;;;;;;;;;5112111;28;2018;-60
2023/05/22 11:15:01;;;;;;;;;;;;;;;;;;5112516;28;1877;-52
2023/05/22 11:17:29;;;;;;;;;;;;;;;;;;5112046;28;1870;-53
2023/05/22 11:19:57;;;;;;;;;;;;;;;;;;5111781;28;1644;-59
2023/05/22 11:22:29;;;;;;;;;;;;;;;;;;5111861;28;1812;-54
2023/05/22 11:24:57;;;;;;;;;;;;;;;;;;5112007;28;1442;-57
2023/05/22 11:27:24;;;;;;;;;;;;;;;;;;5111736;28;1905;-57
2023/05/22 11:29:54;;;;;;;;;;;;;;;;;;5112190;28;2146;-60
2023/05/22 11:32:22;;;;;;;;;;;;;;;;;;5111987;28;2117;-49
2023/05/22 11:34:49;;;;;;;;;;;;;;;;;;5112173;28;2090;-57
2023/05/22 11:37:17;;;;;;;;;;;;;;;;;;5111471;28;1834;-57
2023/05/22 11:39:57;;;;;;;;;;;;;;;;;;5111785;28;1864;-61
2023/05/22 11:42:24;;;;;;;;;;;;;;;;;;5111720;28;2035;-57
2023/05/22 11:44:52;;;;;;;;;;;;;;;;;;5111846;28;1980;-48
2023/05/22 11:47:19;;;;;;;;;;;;;;;;;;5112041;28;1921;-56
2023/05/22 11:49:46;;;;;;;;;;;;;;;;;;5111593;28;2131;-65
2023/05/22 11:52:15;;;;;;;;;;;;;;;;;;5111603;28;2337;-52
2023/05/22 11:54:45;;;;;;;;;;;;;;;;;;5126635;28;2103;-65
2023/05/22 11:57:13;;;;;;;;;;;;;;;;;;5126836;28;2516;-63
2023/05/22 11:59:47;;;;;;;;;;;;;;;;;;5111655;28;1666;-46
2023/05/22 12:02:17;;;;;;;;;;;;;;;;;;5111625;28;1997;-49
2023/05/22 12:04:45;;;;;;;;;;;;;;;;;;5111465;28;1744;-59
2023/05/22 12:07:13;;;;;;;;;;;;;;;;;;5111355;28;1980;-51
2023/05/22 12:09:40;;;;;;;;;;;;;;;;;;5111262;28;1842;-49
2023/05/22 12:12:08;;;;;;;;;;;;;;;;;;5111390;28;1831;-60
2023/05/22 12:14:36;;;;;;;;;;;;;;;;;;5111597;28;1271;-46
2023/05/22 12:17:03;;;;;;;;;;;;;;;;;;5111277;28;2078;-46
2023/05/22 12:19:31;;;;;;;;;;;;;;;;;;5111482;28;1826;-48
2023/05/22 12:21:59;;;;;;;;;;;;;;;;;;5111500;28;2100;-49
2023/05/22 12:24:36;;;;;;;;;;;;;;;;;;5111334;28;1847;-48
2023/05/22 12:27:06;;;;;;;;;;;;;;;;;;5111175;28;1914;-48
2023/05/22 12:29:36;;;;;;;;;;;;;;;;;;5111248;28;1652;-51
2023/05/22 12:32:04;;;;;;;;;;;;;;;;;;5111230;28;1966;-56
2023/05/22 12:34:32;;;;;;;;;;;;;;;;;;5111170;28;1760;-57
2023/05/22 12:37:00;;;;;;;;;;;;;;;;;;5111362;28;2209;-49
2023/05/22 12:39:28;;;;;;;;;;;;;;;;;;5111102;28;2101;-44
2023/05/22 12:41:55;;;;;;;;;;;;;;;;;;5111280;28;2074;-49
2023/05/22 12:44:22;;;;;;;;;;;;;;;;;;5111193;28;1976;-48
2023/05/22 12:46:51;;;;;;;;;;;;;;;;;;5111088;28;1914;-46
2023/05/22 12:49:18;;;;;;;;;;;;;;;;;;5113941;28;1839;-61
2023/05/22 12:51:45;;;;;;;;;;;;;;;;;;5114886;28;2200;-49
2023/05/22 12:54:14;;;;;;;;;;;;;;;;;;5125478;27;1745;-46
2023/05/22 12:56:41;;;;;;;;;;;;;;;;;;5134962;27;2305;-51
2023/05/22 12:59:08;;;;;;;;;;;;;;;;;;5114770;28;1959;-45
2023/05/22 13:01:35;;;;;;;;;;;;;;;;;;5114683;28;1824;-48
2023/05/22 13:04:03;;;;;;;;;;;;;;;;;;5114682;28;1825;-49
2023/05/22 13:06:31;;;;;;;;;;;;;;;;;;5114322;28;1910;-49
2023/05/22 13:08:58;;;;;;;;;;;;;;;;;;5114842;28;1800;-45
2023/05/22 13:11:26;;;;;;;;;;;;;;;;;;5114723;28;1710;-61
2023/05/22 13:13:54;;;;;;;;;;;;;;;;;;5096609;28;2300;-46
2023/05/22 13:16:21;;;;;;;;;;;;;;;;;;5114188;28;2029;-47
2023/05/22 13:18:48;;;;;;;;;;;;;;;;;;5114499;28;1763;-47
2023/05/22 13:21:15;;;;;;;;;;;;;;;;;;5114233;28;1601;-48
2023/05/22 13:23:43;;;;;;;;;;;;;;;;;;5114208;28;2045;-47
2023/05/22 13:26:10;;;;;;;;;;;;;;;;;;5114169;28;2141;-55
2023/05/22 13:28:37;;;;;;;;;;;;;;;;;;5114193;28;2059;-45
2023/05/22 13:31:04;;;;;;;;;;;;;;;;;;5113991;28;1758;-49
2023/05/22 13:33:31;;;;;;;;;;;;;;;;;;5114107;28;2105;-46
2023/05/22 13:35:59;;;;;;;;;;;;;;;;;;5096085;28;2298;-45
2023/05/22 13:38:26;;;;;;;;;;;;;;;;;;5114114;28;2158;-48
2023/05/22 13:40:53;;;;;;;;;;;;;;;;;;5114044;28;1851;-47
2023/05/22 13:43:20;;;;;;;;;;;;;;;;;;5113729;28;1854;-48
2023/05/22 13:45:48;;;;;;;;;;;;;;;;;;5113751;28;1966;-48
2023/05/22 13:48:15;;;;;;;;;;;;;;;;;;5113688;28;1961;-46
2023/05/22 13:50:42;;;;;;;;;;;;;;;;;;5113438;28;2172;-47
2023/05/22 13:53:10;;;;;;;;;;;;;;;;;;5115174;27;1556;-50
2023/05/22 13:55:37;;;;;;;;;;;;;;;;;;5072546;27;5701;-48
2023/05/22 13:58:04;;;;;;;;;;;;;;;;;;5113005;28;1742;-47
2023/05/22 14:00:32;;;;;;;;;;;;;;;;;;5113598;28;1705;-48
2023/05/22 14:02:59;;;;;;;;;;;;;;;;;;5113580;28;2053;-47
2023/05/22 14:05:27;;;;;;;;;;;;;;;;;;5113827;28;1703;-48
2023/05/22 14:07:55;;;;;;;;;;;;;;;;;;5113380;28;2413;-47
2023/05/22 14:10:22;;;;;;;;;;;;;;;;;;5113345;28;2216;-44
2023/05/22 14:12:49;;;;;;;;;;;;;;;;;;5113178;28;2156;-50
2023/05/22 14:15:17;;;;;;;;;;;;;;;;;;5113379;28;2032;-48
2023/05/22 14:17:44;;;;;;;;;;;;;;;;;;5112946;28;1656;-46
2023/05/22 14:20:11;;;;;;;;;;;;;;;;;;5113380;28;1689;-49
2023/05/22 14:22:38;;;;;;;;;;;;;;;;;;5113176;28;2126;-50
2023/05/22 14:25:22;;;;;;;;;;;;;;;;;;5113156;28;1946;-47
2023/05/22 14:27:51;;;;;;;;;;;;;;;;;;5112892;28;1905;-47
2023/05/22 14:30:18;;;;;;;;;;;;;;;;;;5112844;28;1968;-47
2023/05/22 14:32:45;;;;;;;;;;;;;;;;;;5112994;28;2065;-50
2023/05/22 14:35:15;;;;;;;;;;;;;;;;;;5113084;28;1637;-52
2023/05/22 14:37:42;;;;;;;;;;;;;;;;;;5112778;28;1293;-50
2023/05/22 14:40:10;;;;;;;;;;;;;;;;;;5094849;28;1318;-47
2023/05/22 14:42:37;;;;;;;;;;;;;;;;;;5112844;28;1877;-60
2023/05/22 14:45:05;;;;;;;;;;;;;;;;;;5112804;28;1847;-48
2023/05/22 14:47:32;;;;;;;;;;;;;;;;;;5112752;28;1998;-63
2023/05/22 14:49:59;;;;;;;;;;;;;;;;;;5112426;28;1689;-65
2023/05/22 14:52:43;;;;;;;;;;;;;;;;;;5112478;28;2156;-58
2023/05/22 14:55:13;;;;;;;;;;;;;;;;;;5131369;27;1671;-57
2023/05/22 14:57:40;;;;;;;;;;;;;;;;;;5124265;27;2070;-65
2023/05/22 15:00:09;;;;;;;;;;;;;;;;;;5111096;28;2256;-52
2023/05/22 15:02:36;;;;;;;;;;;;;;;;;;5110465;28;1915;-46
2023/05/22 15:05:04;;;;;;;;;;;;;;;;;;5111900;28;1926;-47
2023/05/22 15:07:31;;;;;;;;;;;;;;;;;;5112195;28;1913;-50
2023/05/22 15:10:09;;;;;;;;;;;;;;;;;;5111542;28;1821;-46
2023/05/22 15:12:36;;;;;;;;;;;;;;;;;;5111496;28;1712;-47
2023/05/22 15:15:04;;;;;;;;;;;;;;;;;;5111753;28;1780;-51
2023/05/22 15:17:31;;;;;;;;;;;;;;;;;;5111986;28;1828;-51
2023/05/22 15:19:58;;;;;;;;;;;;;;;;;;5112116;28;1609;-57
2023/05/22 15:22:27;;;;;;;;;;;;;;;;;;5124193;27;1686;-49
2023/05/22 15:25:03;;;;;;;;;;;;;;;;;;5153109;27;2122;-62
2023/05/22 15:27:30;;;;;;;;;;;;;;;;;;5153062;27;1973;-52
2023/05/22 15:29:57;;;;;;;;;;;;;;;;;;5153284;27;2022;-48
2023/05/22 15:32:25;;;;;;;;;;;;;;;;;;5141459;27;1964;-56
2023/05/22 15:34:52;;;;;;;;;;;;;;;;;;5132414;27;2110;-47
2023/05/22 15:37:19;;;;;;;;;;;;;;;;;;5132489;27;1662;-50
2023/05/22 15:39:47;;;;;;;;;;;;;;;;;;5132273;27;1239;-50
2023/05/22 15:42:15;;;;;;;;;;;;;;;;;;5131962;27;1917;-57
2023/05/22 15:44:42;;;;;;;;;;;;;;;;;;5132378;27;2112;-62
2023/05/22 15:47:09;;;;;;;;;;;;;;;;;;5132324;27;1910;-50
2023/05/22 15:49:36;;;;;;;;;;;;;;;;;;5132322;27;1913;-51
2023/05/22 15:52:04;;;;;;;;;;;;;;;;;;5132290;28;1864;-53
2023/05/22 15:54:31;;;;;;;;;;;;;;;;;;5132089;28;1467;-51
2023/05/22 15:56:58;;;;;;;;;;;;;;;;;;5132062;28;1451;-49
2023/05/22 15:59:26;;;;;;;;;;;;;;;;;;5132108;28;1686;-47
2023/05/22 16:01:53;;;;;;;;;;;;;;;;;;5132145;28;2060;-71
2023/05/22 16:04:20;;;;;;;;;;;;;;;;;;5131979;28;1692;-49
2023/05/22 16:06:47;;;;;;;;;;;;;;;;;;5132058;28;1910;-50
2023/05/22 16:09:17;;;;;;;;;;;;;;;;;;5113362;28;1957;-52
2023/05/22 16:11:44;;;;;;;;;;;;;;;;;;5131788;28;2375;-48
2023/05/22 16:14:14;;;;;;;;;;;;;;;;;;5132086;28;1485;-53
2023/05/22 16:16:42;;;;;;;;;;;;;;;;;;5132017;28;2071;-54
2023/05/22 16:19:11;;;;;;;;;;;;;;;;;;5131992;28;1651;-51
2023/05/22 16:21:39;;;;;;;;;;;;;;;;;;5132141;27;1682;-49
2023/05/22 16:24:07;;;;;;;;;;;;;;;;;;5134372;27;2073;-49
2023/05/22 16:26:36;;;;;;;;;;;;;;;;;;5135995;27;2514;-52
2023/05/22 16:29:05;;;;;;;;;;;;;;;;;;5135880;27;1930;-54
2023/05/22 16:31:34;;;;;;;;;;;;;;;;;;5135760;27;1989;-52
2023/05/22 16:34:01;;;;;;;;;;;;;;;;;;5135649;27;1889;-52
2023/05/22 16:36:29;;;;;;;;;;;;;;;;;;5135518;27;2071;-52
2023/05/22 16:38:57;;;;;;;;;;;;;;;;;;5135827;27;1756;-59
2023/05/22 16:41:25;;;;;;;;;;;;;;;;;;5135605;27;2010;-52
2023/05/22 16:43:52;;;;;;;;;;;;;;;;;;5135612;27;1712;-53
2023/05/22 16:46:21;;;;;;;;;;;;;;;;;;5135367;27;1397;-52
2023/05/22 16:48:49;;;;;;;;;;;;;;;;;;5135325;27;1909;-52
2023/05/22 16:51:16;;;;;;;;;;;;;;;;;;5135149;27;1094;-54
2023/05/22 16:53:45;;;;;;;;;;;;;;;;;;5135208;27;1970;-53
2023/05/22 16:56:19;;;;;;;;;;;;;;;;;;5116830;27;1879;-53
2023/05/22 16:58:46;;;;;;;;;;;;;;;;;;5135104;27;2093;-56
2023/05/22 17:01:13;;;;;;;;;;;;;;;;;;5135358;27;1446;-56
2023/05/22 17:03:41;;;;;;;;;;;;;;;;;;5135235;27;1248;-49
2023/05/22 17:06:08;;;;;;;;;;;;;;;;;;5135344;27;1733;-52
2023/05/22 17:08:36;;;;;;;;;;;;;;;;;;5135396;27;1955;-51
2023/05/22 17:11:03;;;;;;;;;;;;;;;;;;5135009;27;1681;-52
2023/05/22 17:13:30;;;;;;;;;;;;;;;;;;5135129;27;1457;-50
2023/05/22 17:15:59;;;;;;;;;;;;;;;;;;5134934;27;1973;-64